Time;durP1;ratioP1;P1;durP2;ratioP2;P2;SDS_P1;SDS_P2;PMS_P1;PMS_P2;Temp;Humidity;BMP_temperature;BMP_pressure;BME280_temperature;BME280_humidity;BME280_pressure;Samples;Min_cycle;Max_cycle;Signal;HPM_P1;HPM_P2
2022/08/14 00:00:15;;;;;;;8.53;7.72;;;;;;;20.40;90.64;100498.09;1701424;82;26332;-77
2022/08/14 00:02:44;;;;;;;12.53;8.33;;;;;;;20.42;90.67;100493.22;1672462;84;26010;-77
2022/08/14 00:05:16;;;;;;;10.15;9.05;;;;;;;20.44;90.72;100494.34;1698281;82;26581;-77
2022/08/14 00:07:44;;;;;;;10.78;7.97;;;;;;;20.44;90.74;100492.45;1697741;82;25812;-77
2022/08/14 00:10:15;;;;;;;10.85;8.20;;;;;;;20.44;90.85;100482.94;1677858;84;27455;-77
2022/08/14 00:12:46;;;;;;;12.90;9.50;;;;;;;20.47;90.83;100481.05;1704609;82;25519;-78
2022/08/14 00:15:21;;;;;;;9.53;8.33;;;;;;;20.47;90.88;100481.58;1734856;81;26491;-77
2022/08/14 00:17:49;;;;;;;9.38;8.33;;;;;;;20.50;90.88;100487.88;1734658;81;25867;-77
2022/08/14 00:20:24;;;;;;;11.93;8.93;;;;;;;20.51;90.90;100480.81;1703091;82;26526;-77
2022/08/14 00:22:51;;;;;;;10.53;8.50;;;;;;;20.54;91.12;100480.32;1700758;82;27468;-77
2022/08/14 00:25:18;;;;;;;10.80;9.18;;;;;;;20.54;91.09;100480.32;1677604;84;26025;-76
2022/08/14 00:27:44;;;;;;;9.68;8.70;;;;;;;20.54;91.12;100472.69;1697980;82;25798;-77
2022/08/14 00:30:13;;;;;;;10.30;9.25;;;;;;;20.53;91.14;100469.14;1703363;82;25829;-77
2022/08/14 00:32:41;;;;;;;9.50;8.53;;;;;;;20.53;91.14;100471.06;1741939;81;25708;-77
2022/08/14 00:35:09;;;;;;;12.33;8.85;;;;;;;20.54;91.14;100468.61;1745004;81;28528;-77
2022/08/14 00:37:40;;;;;;;10.55;8.98;;;;;;;20.55;91.18;100466.19;1733671;81;25849;-76
2022/08/14 00:40:09;;;;;;;12.40;8.65;;;;;;;20.54;91.15;100463.99;1744806;81;25720;-77
2022/08/14 00:42:35;;;;;;;11.55;8.90;;;;;;;20.52;91.15;100462.06;1747677;81;25786;-77
2022/08/14 00:45:04;;;;;;;11.93;9.05;;;;;;;20.50;91.16;100460.67;1735128;81;25838;-77
2022/08/14 00:47:31;;;;;;;9.55;7.62;;;;;;;20.46;91.14;100460.37;1669976;83;28275;-77
2022/08/14 00:49:57;;;;;;;9.93;8.18;;;;;;;20.44;91.15;100456.25;1707404;82;25900;-77
2022/08/14 00:52:24;;;;;;;13.62;9.05;;;;;;;20.44;91.20;100457.08;1691177;82;25786;-77
2022/08/14 00:54:55;;;;;;;9.88;8.98;;;;;;;20.45;91.29;100460.60;1667562;84;26597;-77
2022/08/14 00:57:28;;;;;;;9.58;7.58;;;;;;;20.43;91.24;100459.51;1698853;82;25887;-77
2022/08/14 00:59:56;;;;;;;13.75;8.70;;;;;;;20.42;91.23;100456.48;1702067;82;27490;-76
2022/08/14 01:02:26;;;;;;;11.63;8.63;;;;;;;20.43;91.30;100457.31;1734700;81;25761;-77
2022/08/14 01:04:58;;;;;;;11.90;8.25;;;;;;;20.45;91.27;100460.60;1743052;81;25822;-77
2022/08/14 01:07:28;;;;;;;10.45;8.00;;;;;;;20.46;91.24;100460.37;1752261;81;25881;-77
2022/08/14 01:10:00;;;;;;;9.08;7.83;;;;;;;20.48;91.23;100459.58;1732787;81;25984;-77
2022/08/14 01:12:28;;;;;;;8.33;7.53;;;;;;;20.48;91.14;100463.66;1741626;81;27440;-77
2022/08/14 01:15:00;;;;;;;10.80;8.00;;;;;;;20.48;91.21;100455.50;1697165;82;25962;-77
2022/08/14 01:22:59;;;;;;;10.38;6.80;;;;;;;20.46;90.72;100455.46;1733140;82;26060;-76
2022/08/14 01:25:25;;;;;;;10.70;7.10;;;;;;;20.44;90.71;100452.17;1732882;81;27983;-76
2022/08/14 01:27:54;;;;;;;7.67;6.87;;;;;;;20.44;90.83;100455.73;1734809;81;25787;-75
2022/08/14 01:30:22;;;;;;;8.25;7.37;;;;;;;20.46;90.70;100448.66;1739135;81;25837;-76
2022/08/14 01:32:49;;;;;;;10.93;7.70;;;;;;;20.45;90.70;100450.55;1734904;81;26424;-76
2022/08/14 01:35:16;;;;;;;10.60;7.60;;;;;;;20.46;90.60;100445.94;1749005;81;25739;-75
2022/08/14 01:37:45;;;;;;;8.25;7.45;;;;;;;20.46;90.67;100446.77;1737205;81;27445;-76
2022/08/14 01:40:12;;;;;;;8.48;7.35;;;;;;;20.48;90.66;100447.86;1747154;81;26270;-76
2022/08/14 01:42:43;;;;;;;13.83;7.35;;;;;;;20.47;90.53;100440.77;1728877;81;25836;-76
2022/08/14 01:45:13;;;;;;;9.15;7.25;;;;;;;20.46;90.51;100441.86;1736685;81;25836;-76
2022/08/14 01:47:39;;;;;;;7.97;7.15;;;;;;;20.46;90.49;100440.49;1739073;81;25960;-76
2022/08/14 01:50:08;;;;;;;9.88;7.10;;;;;;;20.45;90.54;100445.64;1742248;81;28306;-76
2022/08/14 01:52:37;;;;;;;7.35;6.65;;;;;;;20.42;90.55;100448.33;1739061;81;25760;-76
2022/08/14 01:55:12;;;;;;;10.65;8.18;;;;;;;20.42;90.60;100451.61;1739149;81;25970;-76
2022/08/14 01:57:38;;;;;;;8.38;7.58;;;;;;;20.43;90.59;100449.16;1726834;81;26519;-76
2022/08/14 02:00:14;;;;;;;9.08;8.08;;;;;;;20.40;90.61;100449.12;1737738;81;25788;-76
2022/08/14 02:02:35;;;;;;;10.15;8.55;;;;;;;20.41;90.76;100449.95;1727817;81;27462;-76
2022/08/14 02:05:02;;;;;;;9.00;8.05;;;;;;;20.40;90.83;100449.69;1737996;81;26014;-76
2022/08/14 02:07:31;;;;;;;11.28;7.80;;;;;;;20.37;90.82;100441.48;1736346;81;25759;-75
2022/08/14 02:09:58;;;;;;;9.95;7.35;;;;;;;20.37;90.86;100450.17;1748602;81;26180;-75
2022/08/14 02:12:24;;;;;;;9.53;8.53;;;;;;;20.37;90.87;100455.62;1732128;81;25843;-76
2022/08/14 02:14:52;;;;;;;9.58;8.55;;;;;;;20.37;90.91;100455.09;1739584;81;28144;-76
2022/08/14 02:17:22;;;;;;;10.50;8.35;;;;;;;20.37;90.92;100446.09;1734581;81;25860;-75
2022/08/14 02:19:47;;;;;;;10.90;7.80;;;;;;;20.36;90.96;100443.11;1682943;82;25809;-76
2022/08/14 02:22:17;;;;;;;8.93;7.87;;;;;;;20.36;90.93;100447.98;1687908;82;25793;-76
2022/08/14 02:24:41;;;;;;;13.40;8.30;;;;;;;20.35;90.90;100442.28;1729405;81;25758;-76
2022/08/14 02:27:10;;;;;;;9.60;7.83;;;;;;;20.35;90.89;100444.17;1740511;81;27477;-76
2022/08/14 02:29:39;;;;;;;8.98;7.92;;;;;;;20.34;90.91;100456.94;1732195;81;25899;-75
2022/08/14 02:32:06;;;;;;;10.25;7.47;;;;;;;20.34;90.94;100449.31;1744195;81;25841;-76
2022/08/14 02:34:35;;;;;;;9.55;7.70;;;;;;;20.33;90.92;100449.88;1738378;81;25828;-76
2022/08/14 02:37:08;;;;;;;11.05;7.60;;;;;;;20.31;90.95;100443.04;1742766;81;25804;-76
2022/08/14 02:39:40;;;;;;;7.97;7.17;;;;;;;20.30;91.00;100445.45;1727284;81;28283;-76
2022/08/14 02:42:11;;;;;;;11.75;7.85;;;;;;;20.28;91.07;100443.53;1731090;81;25777;-76
2022/08/14 02:44:39;;;;;;;;;;;;;;;20.28;91.12;100443.00;1735388;81;25782;-76
2022/08/14 02:47:07;;;;;;;10.75;7.92;;;;;;;20.25;91.32;100433.98;1731011;81;26553;-76
2022/08/14 02:49:35;;;;;;;9.43;8.50;;;;;;;20.23;91.39;100427.97;1745607;81;25890;-75
2022/08/14 02:52:06;;;;;;;9.15;8.18;;;;;;;20.24;91.35;100428.80;1738701;81;28249;-76
2022/08/14 02:54:33;;;;;;;11.20;7.53;;;;;;;20.23;91.40;100427.17;1739910;81;25728;-76
2022/08/14 02:57:05;;;;;;;9.58;8.20;;;;;;;20.19;91.42;100431.45;1737538;81;25906;-76
2022/08/14 02:59:35;;;;;;;9.10;8.20;;;;;;;20.18;91.54;100436.59;1734086;81;25882;-75
2022/08/14 03:02:03;;;;;;;12.53;7.92;;;;;;;20.15;91.63;100435.72;1747141;81;25736;-75
2022/08/14 03:04:29;;;;;;;9.43;7.65;;;;;;;20.12;91.63;100434.88;1733357;81;27672;-76
2022/08/14 03:06:56;;;;;;;10.18;8.33;;;;;;;20.07;91.60;100428.01;1743177;81;25792;-75
2022/08/14 03:09:23;;;;;;;11.65;8.35;;;;;;;20.03;91.61;100421.44;1740760;81;25838;-77
2022/08/14 03:11:51;;;;;;;12.03;8.20;;;;;;;20.00;91.65;100422.23;1677507;83;26606;-75
2022/08/14 03:14:19;;;;;;;13.75;8.08;;;;;;;19.97;91.75;100421.36;1700363;82;25721;-75
2022/08/14 03:16:49;;;;;;;10.68;7.65;;;;;;;19.95;91.67;100423.51;1673124;84;27466;-76
2022/08/14 03:19:13;;;;;;;10.82;7.40;;;;;;;19.89;91.63;100420.45;1663771;84;25809;-75
2022/08/14 03:21:40;;;;;;;7.25;6.65;;;;;;;19.84;91.68;100408.70;1701284;82;25730;-75
2022/08/14 03:26:33;;;;;;;7.92;7.05;;;;;;;19.75;91.74;100400.69;1703287;83;25761;-75
2022/08/14 03:29:01;;;;;;;8.60;7.05;;;;;;;19.73;91.89;100405.55;1711908;82;27458;-76
2022/08/14 03:31:28;;;;;;;7.78;7.03;;;;;;;19.73;92.02;100405.02;1693669;82;26156;-76
2022/08/14 03:33:55;;;;;;;7.65;6.85;;;;;;;19.71;92.00;100403.09;1660553;84;25736;-76
2022/08/14 03:36:22;;;;;;;12.05;7.33;;;;;;;19.65;91.90;100397.28;1646775;84;25824;-76
2022/08/14 03:38:52;;;;;;;10.30;7.75;;;;;;;19.63;91.97;100391.83;1731568;81;25773;-76
2022/08/14 03:41:25;;;;;;;10.50;7.42;;;;;;;19.58;91.93;100383.59;1738891;81;27451;-76
2022/08/14 03:44:00;;;;;;;13.80;7.33;;;;;;;19.51;91.89;100389.73;1736104;81;26373;-75
2022/08/14 03:46:36;;;;;;;13.90;7.00;;;;;;;19.43;92.04;100388.28;1746049;81;25744;-76
2022/08/14 03:49:04;;;;;;;9.18;6.35;;;;;;;19.38;92.27;100386.84;1733177;81;26609;-75
2022/08/14 03:51:33;;;;;;;11.95;6.85;;;;;;;19.33;92.50;100386.75;1741106;81;25862;-76
2022/08/14 03:54:07;;;;;;;10.08;6.62;;;;;;;19.31;92.83;100378.56;1745686;81;27453;-76
2022/08/14 03:56:39;;;;;;;8.53;6.62;;;;;;;19.32;92.98;100385.09;1747859;81;26449;-75
2022/08/14 03:59:08;;;;;;;10.53;6.05;;;;;;;19.28;92.98;100381.23;1746016;81;25717;-76
2022/08/14 04:01:35;;;;;;;8.43;6.50;;;;;;;19.25;93.15;100382.55;1738867;81;25804;-75
2022/08/14 04:04:04;;;;;;;11.18;6.37;;;;;;;19.21;93.28;100381.41;1742559;80;25353;-75
2022/08/14 04:06:30;;;;;;;6.87;5.80;;;;;;;19.19;93.50;100384.91;1732302;81;27640;-75
2022/08/14 04:08:57;;;;;;;8.48;5.70;;;;;;;19.16;93.53;100380.52;1747691;81;26455;-76
2022/08/14 04:11:23;;;;;;;7.37;5.97;;;;;;;19.15;93.74;100387.00;1744999;81;25706;-76
2022/08/14 04:13:50;;;;;;;11.63;6.78;;;;;;;19.15;93.86;100383.76;1735765;81;26497;-75
2022/08/14 04:16:21;;;;;;;8.68;6.47;;;;;;;19.14;93.96;100390.24;1739061;81;25830;-76
2022/08/14 04:18:52;;;;;;;8.00;5.83;;;;;;;19.17;94.05;100390.29;1737526;81;27534;-76
2022/08/14 04:21:23;;;;;;;10.68;5.90;;;;;;;19.18;94.08;100386.52;1742488;81;25745;-75
2022/08/14 04:23:51;;;;;;;12.40;6.40;;;;;;;19.21;94.16;100384.12;1742714;81;25999;-76
2022/08/14 04:26:20;;;;;;;7.42;6.60;;;;;;;19.23;94.27;100386.05;1745203;82;25779;-76
2022/08/14 04:28:49;;;;;;;10.30;6.47;;;;;;;19.27;94.36;100394.52;1747831;81;26314;-76
2022/08/14 04:31:21;;;;;;;8.88;6.22;;;;;;;19.31;94.38;100394.30;1741244;81;28163;-76
2022/08/14 04:33:48;;;;;;;7.55;6.28;;;;;;;19.34;94.40;100396.56;1739906;81;26013;-76
2022/08/14 04:36:14;;;;;;;10.43;5.75;;;;;;;19.36;94.44;100403.92;1738072;81;26477;-76
2022/08/14 04:44:11;;;;;;;10.05;6.00;;;;;;;19.44;94.49;100403.49;1737598;81;28310;-76
2022/08/14 04:46:37;;;;;;;7.60;6.90;;;;;;;19.46;94.54;100401.34;1735443;81;25803;-75
2022/08/14 04:49:04;;;;;;;9.00;5.90;;;;;;;19.48;94.52;100405.20;1741995;81;25781;-76
2022/08/14 04:51:31;;;;;;;8.30;6.50;;;;;;;19.50;94.61;100403.88;1742528;81;25843;-76
2022/08/14 04:54:00;;;;;;;7.95;6.35;;;;;;;19.51;94.55;100397.89;1742845;80;25950;-76
2022/08/14 04:56:26;;;;;;;7.97;6.10;;;;;;;19.53;94.64;100395.21;1736872;81;27466;-76
2022/08/14 04:58:58;;;;;;;10.70;6.50;;;;;;;19.55;94.72;100399.86;1736553;81;25749;-75
2022/08/14 05:01:26;;;;;;;9.25;5.70;;;;;;;19.58;94.67;100402.09;1738260;81;25715;-76
2022/08/14 05:03:54;;;;;;;7.25;6.10;;;;;;;19.61;94.77;100387.98;1741788;81;26243;-75
2022/08/14 05:06:21;;;;;;;6.62;5.72;;;;;;;19.66;95.01;100394.03;1740670;81;25975;-75
2022/08/14 05:08:47;;;;;;;9.73;6.12;;;;;;;19.69;95.09;100393.54;1738159;81;26938;-76
2022/08/14 05:11:14;;;;;;;7.97;5.90;;;;;;;19.73;95.11;100394.68;1741638;81;26445;-75
2022/08/14 05:13:42;;;;;;;9.23;5.75;;;;;;;19.77;95.34;100402.61;1736044;81;25765;-76
2022/08/14 05:16:11;;;;;;;6.70;6.10;;;;;;;19.81;95.33;100400.50;1736368;81;26561;-76
2022/08/14 05:18:38;;;;;;;10.25;5.90;;;;;;;19.88;95.43;100398.95;1739283;81;25863;-75
2022/08/14 05:21:07;;;;;;;6.83;5.87;;;;;;;19.90;95.19;100399.00;1669682;84;27401;-76
2022/08/14 05:23:39;;;;;;;8.85;5.42;;;;;;;19.95;95.09;100402.33;1700345;82;26495;-76
2022/08/14 05:26:12;;;;;;;9.70;5.95;;;;;;;19.99;95.14;100401.53;1703325;84;25855;-76
2022/08/14 05:28:35;;;;;;;8.68;5.58;;;;;;;20.04;95.03;100396.70;1703934;82;25846;-75
2022/08/14 05:31:08;;;;;;;8.60;5.95;;;;;;;20.08;94.71;100403.84;1691387;83;25896;-76
2022/08/14 05:33:36;;;;;;;6.40;5.80;;;;;;;20.10;94.82;100405.77;1691054;84;27481;-76
2022/08/14 05:36:10;;;;;;;5.95;5.45;;;;;;;20.16;94.81;100402.02;1691351;83;26281;-76
2022/08/14 05:38:40;;;;;;;9.95;5.97;;;;;;;20.22;94.77;100396.42;1691508;84;25286;-75
2022/08/14 05:41:11;;;;;;;;;;;;;;;20.28;94.55;100397.29;1705608;84;25716;-75
2022/08/14 05:43:39;;;;;;;8.65;5.80;;;;;;;20.34;94.82;100398.98;1670460;85;25775;-76
2022/08/14 05:46:09;;;;;;;9.53;6.72;;;;;;;20.37;94.85;100400.67;1726747;82;27438;-75
2022/08/14 05:48:35;;;;;;;16.05;6.12;;;;;;;20.45;94.99;100394.77;1735323;81;25717;-75
2022/08/14 05:51:01;;;;;;;7.47;5.80;;;;;;;20.53;94.85;100396.23;1742173;81;25738;-76
2022/08/14 05:53:28;;;;;;;9.78;6.35;;;;;;;20.60;94.58;100398.19;1742910;81;25837;-76
2022/08/14 05:55:55;;;;;;;9.90;5.97;;;;;;;20.68;94.49;100402.63;1696300;82;25971;-75
2022/08/14 05:58:22;;;;;;;7.65;6.87;;;;;;;20.78;94.49;100402.71;1669541;84;28258;-76
2022/08/14 06:00:49;;;;;;;7.95;6.40;;;;;;;20.89;94.19;100391.41;1694943;82;25865;-75
2022/08/14 06:03:19;;;;;;;9.75;6.83;;;;;;;20.99;94.65;100390.65;1700916;82;25626;-75
2022/08/14 06:05:48;;;;;;;8.08;7.28;;;;;;;21.10;94.07;100395.14;1711017;82;25769;-76
2022/08/14 06:08:25;;;;;;;11.20;7.08;;;;;;;21.21;94.00;100381.88;1706602;82;25541;-75
2022/08/14 06:10:56;;;;;;;12.05;7.58;;;;;;;21.30;93.74;100376.20;1704999;82;27435;-75
2022/08/14 06:13:22;;;;;;;12.68;7.97;;;;;;;21.38;93.34;100377.89;1700781;82;25575;-75
2022/08/14 06:15:49;;;;;;;13.00;7.87;;;;;;;21.52;93.36;100378.26;1671661;84;25830;-75
2022/08/14 06:18:17;;;;;;;8.10;7.35;;;;;;;21.60;93.15;100381.84;1671236;85;25870;-75
2022/08/14 06:20:43;;;;;;;7.70;6.87;;;;;;;21.67;92.41;100380.24;1669406;84;26445;-76
2022/08/14 06:23:10;;;;;;;8.18;7.37;;;;;;;21.72;92.29;100377.02;1697196;82;27990;-77
2022/08/14 06:25:38;;;;;;;9.53;7.75;;;;;;;21.78;92.46;100374.59;1694839;82;26050;-77
2022/08/14 06:28:04;;;;;;;9.35;7.83;;;;;;;21.89;92.16;100378.22;1687123;82;26393;-77
2022/08/14 06:30:33;;;;;;;12.30;7.97;;;;;;;21.95;91.63;100383.97;1738622;81;26414;-77
2022/08/14 06:33:00;;;;;;;9.13;8.00;;;;;;;22.01;91.61;100384.25;1741832;81;26504;-76
2022/08/14 06:35:26;;;;;;;10.32;7.78;;;;;;;22.06;91.33;100381.56;1743839;81;28080;-77
2022/08/14 06:37:57;;;;;;;10.32;8.23;;;;;;;22.13;91.45;100388.39;1733801;81;26144;-77
2022/08/14 06:40:27;;;;;;;11.28;8.50;;;;;;;22.21;91.20;100391.16;1738817;81;25859;-77
2022/08/14 06:42:59;;;;;;;11.18;8.48;;;;;;;22.20;90.65;100386.78;1741073;81;26547;-77
2022/08/14 06:45:26;;;;;;;9.60;8.60;;;;;;;22.17;90.50;100384.61;1736558;81;25799;-76
2022/08/14 06:47:54;;;;;;;9.25;7.97;;;;;;;22.10;90.11;100381.30;1735089;81;28232;-77
2022/08/14 06:50:22;;;;;;;13.80;8.70;;;;;;;22.04;90.02;100380.47;1681472;83;25784;-77
2022/08/14 06:52:49;;;;;;;13.62;8.18;;;;;;;22.01;90.34;100385.63;1668010;84;25688;-76
2022/08/14 06:55:17;;;;;;;9.35;7.67;;;;;;;21.97;90.39;100381.25;1702008;82;25758;-77
2022/08/14 06:57:50;;;;;;;11.33;9.05;;;;;;;21.98;90.87;100380.15;1705293;83;25931;-75
2022/08/14 07:00:21;;;;;;;10.15;8.93;;;;;;;22.01;90.68;100382.89;1709818;83;27465;-76
2022/08/14 07:05:45;;;;;;;10.82;8.30;;;;;;;22.18;91.20;100372.05;1702535;82;25804;-75
2022/08/14 07:08:22;;;;;;;10.78;9.03;;;;;;;22.33;91.55;100376.73;1701690;84;26624;-76
2022/08/14 07:10:54;;;;;;;10.10;8.93;;;;;;;22.49;91.60;100381.69;1710247;82;25907;-76
2022/08/14 07:13:21;;;;;;;12.10;9.15;;;;;;;22.61;91.47;100379.55;1744307;81;27433;-75
2022/08/14 07:15:50;;;;;;;11.12;9.73;;;;;;;22.74;91.25;100375.75;1736055;81;25927;-76
2022/08/14 07:18:22;;;;;;;11.83;9.28;;;;;;;22.84;90.98;100370.28;1741479;81;25759;-75
2022/08/14 07:20:49;;;;;;;11.55;8.58;;;;;;;22.93;90.10;100376.84;1746308;81;25868;-75
2022/08/14 07:23:16;;;;;;;11.45;9.65;;;;;;;22.98;90.00;100379.59;1742907;81;26421;-75
2022/08/14 07:25:45;;;;;;;10.60;9.60;;;;;;;23.05;89.34;100375.22;1713394;82;27435;-76
2022/08/14 07:28:15;;;;;;;13.58;10.30;;;;;;;23.09;89.50;100369.48;1740948;81;25778;-75
2022/08/14 07:30:42;;;;;;;11.65;10.00;;;;;;;23.16;89.20;100378.20;1741830;81;26476;-76
2022/08/14 07:33:10;;;;;;;14.87;10.88;;;;;;;23.19;88.96;100370.00;1705476;83;26544;-76
2022/08/14 07:35:39;;;;;;;11.85;9.68;;;;;;;23.27;89.77;100370.80;1697028;82;25877;-75
2022/08/14 07:38:07;;;;;;;12.15;10.40;;;;;;;23.35;89.05;100372.46;1701082;82;27977;-75
2022/08/14 07:40:34;;;;;;;12.05;10.50;;;;;;;23.37;88.92;100375.77;1695120;82;25924;-75
2022/08/14 07:43:01;;;;;;;15.78;10.88;;;;;;;23.42;88.78;100367.54;1671764;84;26203;-75
2022/08/14 07:45:27;;;;;;;12.50;11.30;;;;;;;23.53;88.41;100371.89;1690159;83;26103;-75
2022/08/14 07:47:57;;;;;;;12.63;10.55;;;;;;;23.63;88.38;100366.95;1668994;84;25862;-75
2022/08/14 07:50:24;;;;;;;13.85;10.05;;;;;;;23.72;88.69;100371.56;1668284;84;27504;-76
2022/08/14 07:52:50;;;;;;;12.13;10.32;;;;;;;23.80;88.61;100366.63;1751375;81;26427;-75
2022/08/14 07:55:18;;;;;;;15.28;10.10;;;;;;;23.78;87.22;100364.97;1731627;81;25711;-75
2022/08/14 07:57:46;;;;;;;14.28;10.30;;;;;;;23.82;87.26;100363.06;1735003;81;25871;-75
2022/08/14 08:00:21;;;;;;;10.80;9.70;;;;;;;23.81;87.10;100370.44;1735121;81;25294;-75
2022/08/14 08:02:51;;;;;;;11.28;10.15;;;;;;;23.86;87.33;100363.59;1739722;81;28260;-75
2022/08/14 08:05:20;;;;;;;17.15;10.85;;;;;;;23.85;87.07;100361.12;1739831;81;25708;-75
2022/08/14 08:07:47;;;;;;;12.07;10.18;;;;;;;23.87;87.20;100361.66;1743821;81;25809;-75
2022/08/14 08:10:30;;;;;;;13.95;10.03;;;;;;;23.88;87.11;100355.09;1741934;81;26646;-75
2022/08/14 08:13:01;;;;;;;12.43;10.53;;;;;;;23.89;87.22;100356.75;1729082;81;25718;-76
2022/08/14 08:15:40;;;;;;;13.38;10.32;;;;;;;23.90;87.22;100359.20;1739624;81;27463;-75
2022/08/14 08:18:10;;;;;;;14.55;10.72;;;;;;;23.92;87.19;100358.37;1735669;81;26403;-76
2022/08/14 08:20:47;;;;;;;10.90;9.85;;;;;;;23.91;87.28;100358.08;1734465;81;25843;-76
2022/08/14 08:23:17;;;;;;;12.90;11.05;;;;;;;23.94;87.48;100358.91;1739840;81;25949;-75
2022/08/14 08:25:47;;;;;;;12.13;10.58;;;;;;;23.98;87.69;100360.52;1731966;81;25854;-76
2022/08/14 08:28:19;;;;;;;11.43;10.30;;;;;;;24.02;87.54;100356.95;1753631;81;27940;-76
2022/08/14 08:30:58;;;;;;;14.78;10.85;;;;;;;24.09;87.75;100356.13;1702526;82;25795;-76
2022/08/14 08:33:28;;;;;;;13.72;11.48;;;;;;;24.12;87.51;100357.48;1699995;82;26147;-76
2022/08/14 08:36:04;;;;;;;15.55;11.70;;;;;;;24.14;87.82;100356.11;1672678;84;25802;-76
2022/08/14 08:38:31;;;;;;;15.20;11.78;;;;;;;24.14;87.21;100356.11;1720442;82;26140;-75
2022/08/14 08:40:59;;;;;;;13.20;11.90;;;;;;;24.09;86.86;100358.87;1748648;80;27605;-76
2022/08/14 08:43:35;;;;;;;19.55;12.80;;;;;;;24.11;87.31;100365.42;1741534;81;25879;-77
2022/08/14 08:46:09;;;;;;;13.75;12.35;;;;;;;24.16;87.61;100366.23;1741652;81;25966;-75
2022/08/14 08:48:45;;;;;;;16.57;12.58;;;;;;;24.25;87.74;100365.88;1736891;81;25814;-76
2022/08/14 08:51:25;;;;;;;14.43;12.65;;;;;;;24.35;87.21;100365.02;1739290;81;25860;-76
2022/08/14 08:54:04;;;;;;;14.98;12.50;;;;;;;24.48;87.25;100372.61;1727845;81;27537;-77
2022/08/14 08:56:51;;;;;;;14.58;11.57;;;;;;;24.53;87.13;100373.93;1744065;81;25893;-78
2022/08/14 08:59:25;;;;;;;14.28;12.18;;;;;;;24.60;87.41;100366.77;1737375;81;25788;-76
2022/08/14 09:02:01;;;;;;;14.05;12.58;;;;;;;24.62;86.79;100367.30;1751083;80;26338;-77
2022/08/14 09:04:32;;;;;;;13.98;12.45;;;;;;;24.63;86.31;100369.77;1736023;81;26597;-76
2022/08/14 09:06:58;;;;;;;;;;;;;;;24.64;86.21;100363.17;1741317;81;26885;-76
2022/08/14 09:09:28;;;;;;;13.80;11.95;;;;;;;24.64;86.39;100363.17;1730908;81;25756;-76
2022/08/14 09:11:57;;;;;;;13.93;11.65;;;;;;;24.64;86.13;100360.98;1732145;81;25873;-77
2022/08/14 09:14:28;;;;;;;13.22;11.88;;;;;;;24.66;86.24;100361.55;1738557;81;44055;-76
2022/08/14 09:16:57;;;;;;;14.23;11.65;;;;;;;24.62;85.69;100361.27;1742575;81;26321;-77
2022/08/14 09:19:24;;;;;;;15.53;11.85;;;;;;;24.61;85.29;100355.55;1733142;81;28343;-77
2022/08/14 09:21:52;;;;;;;13.50;12.10;;;;;;;24.62;85.46;100348.95;1739035;81;25761;-77
2022/08/14 09:24:19;;;;;;;13.62;12.00;;;;;;;24.62;85.36;100344.02;1736118;81;25878;-76
2022/08/14 09:26:46;;;;;;;13.38;12.07;;;;;;;24.63;85.63;100345.13;1742744;81;25811;-76
2022/08/14 09:29:13;;;;;;;14.30;11.88;;;;;;;24.67;85.38;100341.25;1744762;81;25861;-76
2022/08/14 09:31:48;;;;;;;16.97;12.07;;;;;;;24.71;85.72;100343.68;1735575;81;27453;-77
2022/08/14 09:35:09;;;;;;;13.88;12.20;;;;;;;24.80;85.66;100340.64;1739715;81;25344;-77
2022/08/14 09:38:01;;;;;;;14.93;12.65;;;;;;;24.82;85.86;100337.88;1745320;81;25611;-76
2022/08/14 09:41:01;;;;;;;13.28;11.78;;;;;;;24.85;85.87;100345.51;1745326;81;25942;-77
2022/08/14 09:44:02;;;;;;;20.02;13.03;;;;;;;24.92;85.74;100341.07;1725053;81;26249;-76
2022/08/14 09:46:29;;;;;;;15.25;12.28;;;;;;;24.97;85.40;100335.02;1734483;81;27526;-76
2022/08/14 09:49:05;;;;;;;16.65;13.40;;;;;;;25.04;85.56;100332.73;1717856;82;25877;-77
2022/08/14 09:51:35;;;;;;;17.20;12.53;;;;;;;25.09;85.49;100327.22;1729017;81;25773;-77
2022/08/14 09:54:11;;;;;;;17.77;12.25;;;;;;;25.16;85.53;100324.96;1679173;83;26559;-76
2022/08/14 09:56:49;;;;;;;14.25;11.97;;;;;;;25.29;84.96;100317.98;1671890;84;25949;-77
2022/08/14 09:59:21;;;;;;;15.65;12.60;;;;;;;25.32;84.40;100313.27;1695841;82;28283;-77
2022/08/14 10:01:46;;;;;;;17.70;13.47;;;;;;;25.36;84.20;100310.78;1687502;84;25848;-77
2022/08/14 10:04:23;;;;;;;13.90;12.45;;;;;;;25.45;84.90;100303.59;1689977;82;25827;-76
2022/08/14 10:06:50;;;;;;;16.30;12.40;;;;;;;25.49;84.38;100310.91;1702743;83;26613;-76
2022/08/14 10:09:18;;;;;;;17.52;14.25;;;;;;;25.53;83.78;100309.25;1702896;82;25917;-76
2022/08/14 10:11:56;;;;;;;14.18;12.63;;;;;;;25.61;83.45;100302.28;1684594;84;28262;-76
2022/08/14 10:14:29;;;;;;;13.40;12.00;;;;;;;25.61;82.53;100301.73;1686107;83;26010;-77
2022/08/14 10:17:00;;;;;;;18.05;12.85;;;;;;;25.59;81.58;100307.25;1659268;84;25786;-77
2022/08/14 10:19:30;;;;;;;14.53;11.93;;;;;;;25.60;81.82;100300.67;1701125;82;25858;-77
2022/08/14 10:22:09;;;;;;;16.32;13.13;;;;;;;25.71;82.01;100298.86;1695382;82;25904;-77
2022/08/14 10:24:45;;;;;;;15.28;11.57;;;;;;;25.81;82.26;100296.55;1695605;82;27498;-77
2022/08/14 10:27:22;;;;;;;15.25;11.90;;;;;;;25.89;81.93;100300.01;1740349;81;25950;-78
2022/08/14 10:29:54;;;;;;;14.40;12.70;;;;;;;25.89;80.51;100300.83;1734618;82;25252;-77
2022/08/14 10:32:22;;;;;;;13.35;12.03;;;;;;;25.89;80.60;100300.01;1719427;79;26545;-76
2022/08/14 10:37:40;;;;;;;14.13;11.90;;;;;;;26.05;80.98;100289.64;1702345;83;28205;-76
2022/08/14 10:40:08;;;;;;;13.53;12.13;;;;;;;26.19;80.96;100287.27;1703689;83;26435;-74
2022/08/14 10:42:40;;;;;;;15.30;13.22;;;;;;;26.27;80.95;100300.87;1669521;84;25938;-75
2022/08/14 10:45:23;;;;;;;13.70;12.13;;;;;;;26.38;81.02;100296.86;1697834;82;26436;-76
2022/08/14 10:47:51;;;;;;;15.53;11.83;;;;;;;26.50;80.70;100290.34;1672294;84;25805;-77
2022/08/14 10:50:31;;;;;;;16.15;13.43;;;;;;;26.50;79.75;100290.34;1704867;82;28259;-77
2022/08/14 10:53:00;;;;;;;15.80;12.43;;;;;;;26.46;78.83;100287.39;1673076;84;26077;-77
2022/08/14 10:55:38;;;;;;;14.68;13.05;;;;;;;26.38;78.49;100292.74;1750914;81;26358;-77
2022/08/14 10:58:12;;;;;;;14.75;12.65;;;;;;;26.31;78.35;100289.00;1752546;81;26504;-77
2022/08/14 11:00:38;;;;;;;13.53;12.13;;;;;;;26.29;78.76;100293.14;1742838;81;25764;-77
2022/08/14 11:03:09;;;;;;;14.45;12.20;;;;;;;26.29;79.20;100287.66;1744102;81;27528;-77
2022/08/14 11:05:48;;;;;;;14.30;12.18;;;;;;;26.42;80.13;100289.66;1728641;81;25917;-77
2022/08/14 11:08:20;;;;;;;19.57;13.98;;;;;;;26.57;80.48;100283.92;1736079;81;25758;-77
2022/08/14 11:10:55;;;;;;;17.87;13.55;;;;;;;26.68;79.68;100290.88;1736012;81;26651;-77
2022/08/14 11:13:28;;;;;;;14.75;12.43;;;;;;;26.65;77.95;100288.17;1746067;81;25900;-77
2022/08/14 11:16:02;;;;;;;19.42;13.60;;;;;;;26.60;78.25;100285.50;1740833;81;28722;-77
2022/08/14 11:18:31;;;;;;;14.95;12.75;;;;;;;26.66;78.31;100284.87;1745208;81;26470;-77
2022/08/14 11:20:59;;;;;;;19.92;14.55;;;;;;;26.62;77.56;100283.84;1728310;81;26308;-76
2022/08/14 11:23:29;;;;;;;15.43;12.80;;;;;;;26.58;77.81;100284.19;1743067;81;25848;-76
2022/08/14 11:25:58;;;;;;;16.65;12.68;;;;;;;26.67;78.17;100282.37;1727943;81;25739;-76
2022/08/14 11:28:33;;;;;;;15.00;13.40;;;;;;;26.71;77.83;100284.77;1741230;81;27471;-76
2022/08/14 11:31:02;;;;;;;14.95;12.43;;;;;;;26.70;77.20;100279.85;1737258;81;25860;-76
2022/08/14 11:33:31;;;;;;;14.78;12.73;;;;;;;26.66;77.19;100280.20;1727927;81;26400;-77
2022/08/14 11:36:00;;;;;;;15.15;12.35;;;;;;;26.68;77.15;100275.77;1745698;81;25831;-77
2022/08/14 11:38:36;;;;;;;13.75;12.33;;;;;;;26.75;77.01;100282.53;1737306;81;25913;-76
2022/08/14 11:41:04;;;;;;;13.55;12.23;;;;;;;26.87;77.38;100275.19;1734252;81;27484;-76
2022/08/14 11:43:30;;;;;;;13.83;12.00;;;;;;;26.96;77.18;100275.31;1737436;81;25910;-76
2022/08/14 11:45:57;;;;;;;13.05;11.40;;;;;;;27.03;77.38;100271.03;1738066;81;25879;-76
2022/08/14 11:48:25;;;;;;;18.20;13.20;;;;;;;27.14;77.30;100269.73;1720638;81;26449;-77